Flight Track Log - Related Links

Times and Time Zones

All times are in EST time to prevent confusion due to time zone crossing. See the N100PM flight status page for this flight to view local times or setup timezone preferences in your user account.

Time Position Orientation Groundspeed Altitude Reporting Facility
EST Latitude Longitude Course Direction KTS MPH feet Rate Location/Type
Sun 10:42:00 AM 26.2997 -81.8295 341° North  Level FlightAware
Sun 10:43:00 AM 26.3249 -81.8393 341° North  Level FlightAware
Sun 10:44:00 AM 26.3501 -81.8491 341° North  Level FlightAware
Sun 10:45:00 AM 26.3753 -81.8588 341° North  Level FlightAware
Sun 10:46:00 AM 26.4005 -81.8686 341° North  Level FlightAware
Sun 10:47:00 AM 26.4256 -81.8784 341° North  Level FlightAware
Sun 10:48:00 AM 26.4508 -81.8882 341° North  Level FlightAware
Sun 10:49:00 AM 26.4760 -81.8980 341° North  Level FlightAware
Sun 10:50:00 AM 26.5012 -81.9078 341° North  Level FlightAware
Sun 10:51:00 AM 26.5264 -81.9176 341° North  Level FlightAware
Sun 10:52:00 AM 26.5516 -81.9274 341° North  Level FlightAware
Sun 10:53:00 AM 26.5767 -81.9372 341° North  Level FlightAware
Sun 10:54:00 AM 26.6019 -81.9471 341° North  Level FlightAware
Sun 10:55:00 AM 26.6271 -81.9569 341° North  Level FlightAware
Sun 10:56:00 AM 26.6523 -81.9667 341° North  Level FlightAware
Sun 10:57:00 AM 26.6774 -81.9766 341° North  Level FlightAware
Sun 10:58:00 AM 26.7026 -81.9864 341° North  Level FlightAware
Sun 10:59:00 AM 26.7278 -81.9962 341° North  Level FlightAware
Sun 11:00:00 AM 26.7530 -82.0061 341° North  Level FlightAware
Sun 11:01:00 AM 26.7781 -82.0160 341° North  Level FlightAware
Sun 11:02:00 AM 26.8033 -82.0258 341° North  Level FlightAware
Sun 11:03:00 AM 26.8285 -82.0357 341° North  Level FlightAware
Sun 11:04:00 AM 26.8537 -82.0455 341° North  Level FlightAware
Sun 11:04:08 AM 26.8500 -82.3000 287° West 113 130 4,100  Level Tampa TRACON
Sun 11:04:57 AM 26.8667 -82.3167 318° Northwest 112 129 4,100  Level Tampa TRACON
Sun 11:05:00 AM 26.8788 -82.0554 341° North  Level FlightAware
Sun 11:05:57 AM 26.9000 -82.3333 336° Northwest 112 129 4,100  Level Tampa TRACON
Sun 11:06:00 AM 26.9040 -82.0653 341° North  Level FlightAware
Sun 11:06:57 AM 26.9333 -82.3500 336° Northwest 112 129 4,000  Level Tampa TRACON
Sun 11:07:00 AM 26.9292 -82.0751 341° North  Level FlightAware
Sun 11:07:57 AM 26.9500 -82.3667 318° Northwest 108 124 3,400  Level Tampa TRACON
Sun 11:08:00 AM 26.9513 -82.0883 287° West  Level FlightAware
Sun 11:09:00 AM 26.9592 -82.1169 287° West  Level FlightAware
Sun 11:09:03 AM 26.9833 -82.3833 336° Northwest 106 122 2,500  Level Tampa TRACON
Sun 11:10:04 AM 27.0000 -82.4000 318° Northwest 103 119 1,600 -500 Descending Tampa TRACON
Sun 11:11:03 AM 27.0333 -82.4333 318° Northwest 102 117 1,500 -102 Descending Tampa TRACON

Login

Don't have an account? Register now (free) for customized features, flight alerts, and more!